Time;durP1;ratioP1;P1;durP2;ratioP2;P2;SDS_P1;SDS_P2;PMS_P1;PMS_P2;Temp;Humidity;BMP_temperature;BMP_pressure;BME280_temperature;BME280_humidity;BME280_pressure;Samples;Min_cycle;Max_cycle;Signal;HPM_P1;HPM_P2
2023/01/15 00:38:26;;;;;;;30.17;9.68;;;2.80;99.90;;;;;;6156292;23;20027;31
2023/01/15 00:52:04;;;;;;;29.02;10.98;;;2.80;99.90;;;;;;6123409;23;20052;31
2023/01/15 00:54:34;;;;;;;27.73;9.32;;;2.70;99.90;;;;;;6164834;22;20017;-79
2023/01/15 01:11:19;;;;;;;24.55;10.10;;;2.80;99.90;;;;;;6162411;22;19931;31
2023/01/15 01:50:13;;;;;;;26.50;10.07;;;2.60;99.90;;;;;;6166014;22;20020;-79
2023/01/15 02:08:31;;;;;;;22.45;10.07;;;2.70;99.90;;;;;;6183021;22;20084;31
2023/01/15 02:39:50;;;;;;;27.50;9.63;;;2.50;99.90;;;;;;6191258;22;20052;-80
2023/01/15 02:56:15;;;;;;;21.65;7.43;;;2.50;99.90;;;;;;6238777;23;20487;-78
2023/01/15 03:13:05;;;;;;;22.80;8.88;;;2.50;99.90;;;;;;6104213;23;20037;-79
2023/01/15 03:18:58;;;;;;;25.77;8.57;;;2.50;99.90;;;;;;6100354;23;20018;-81
2023/01/15 03:21:38;;;;;;;23.52;9.75;;;2.50;99.90;;;;;;6088354;23;20018;-80
2023/01/15 03:24:07;;;;;;;27.58;9.73;;;2.40;99.90;;;;;;6059526;23;20018;-80
2023/01/15 03:30:39;;;;;;;25.33;9.43;;;2.50;99.90;;;;;;6154094;23;20128;31
2023/01/15 03:33:10;;;;;;;24.70;8.77;;;2.40;99.90;;;;;;6059549;23;20024;-80
2023/01/15 03:35:42;;;;;;;29.37;9.47;;;2.40;99.90;;;;;;6056078;23;20038;-80
2023/01/15 03:38:12;;;;;;;23.75;9.32;;;2.50;99.90;;;;;;6095795;23;20263;-80
2023/01/15 03:40:57;;;;;;;28.75;10.77;;;2.10;99.90;;;;;;6116547;23;20022;-80
2023/01/15 03:44:05;;;;;;;21.80;8.38;;;2.40;99.90;;;;;;6118024;23;20097;-80
2023/01/15 03:47:07;;;;;;;24.40;7.82;;;2.50;99.90;;;;;;6136668;23;20026;-78
2023/01/15 03:49:43;;;;;;;24.48;8.90;;;2.40;99.90;;;;;;6113889;23;20026;-80
2023/01/15 03:52:21;;;;;;;;;;;2.40;99.90;;;;;;6086229;23;20030;-80
2023/01/15 03:55:13;;;;;;;19.85;7.53;;;2.50;99.90;;;;;;6083238;23;19927;-79
2023/01/15 03:57:59;;;;;;;22.98;7.68;;;2.40;99.90;;;;;;6110338;23;20026;-79
2023/01/15 04:00:38;;;;;;;23.02;9.25;;;2.50;99.90;;;;;;6113818;23;20028;-80
2023/01/15 04:03:08;;;;;;;22.40;8.45;;;2.50;99.90;;;;;;6090840;23;20132;-79
2023/01/15 04:16:38;;;;;;;19.10;6.70;;;2.50;99.90;;;;;;6155808;23;20863;31
2023/01/15 04:19:51;;;;;;;18.65;7.00;;;2.50;99.90;;;;;;6122725;23;20036;31
2023/01/15 04:29:26;;;;;;;18.58;7.38;;;2.50;99.90;;;;;;6156350;23;20016;-80
2023/01/15 04:46:40;;;;;;;20.20;7.65;;;2.50;99.90;;;;;;6155615;23;20043;31
2023/01/15 04:49:18;;;;;;;21.60;7.97;;;2.80;99.90;;;;;;6083874;23;19937;31
2023/01/15 05:16:13;;;;;;;22.13;8.40;;;2.60;99.90;;;;;;6162028;23;20033;-80
2023/01/15 05:18:43;;;;;;;21.45;7.60;;;2.60;99.90;;;;;;6172327;23;20021;-80
2023/01/15 05:21:19;;;;;;;20.23;7.25;;;2.50;99.90;;;;;;6166994;23;20024;-80
2023/01/15 05:23:48;;;;;;;23.02;8.02;;;2.60;99.90;;;;;;6160319;23;20025;-80
2023/01/15 05:26:17;;;;;;;18.25;5.93;;;2.60;99.90;;;;;;6142210;23;20465;-80
2023/01/15 05:28:45;;;;;;;16.13;6.28;;;2.60;99.90;;;;;;6191481;23;20100;-79
2023/01/15 05:31:17;;;;;;;11.40;3.65;;;2.60;99.90;;;;;;6169809;23;20021;-80
2023/01/15 05:33:47;;;;;;;17.02;7.10;;;2.50;99.90;;;;;;6158735;23;20021;-79
2023/01/15 05:36:21;;;;;;;20.48;7.28;;;2.60;99.90;;;;;;6145860;23;20021;-79
2023/01/15 05:38:49;;;;;;;17.67;6.45;;;2.60;99.90;;;;;;6159618;23;20013;-79
2023/01/15 05:44:07;;;;;;;19.63;7.53;;;2.60;99.90;;;;;;6181215;23;20128;-79
2023/01/15 05:46:36;;;;;;;21.98;7.50;;;2.70;99.90;;;;;;6136771;23;20021;-79
2023/01/15 05:49:07;;;;;;;16.70;6.50;;;2.60;99.90;;;;;;6140070;23;20075;-79
2023/01/15 05:51:35;;;;;;;21.25;8.30;;;2.60;99.90;;;;;;6136729;23;20020;-79
2023/01/15 05:54:04;;;;;;;21.25;6.72;;;2.60;99.90;;;;;;6164271;23;20017;-79
2023/01/15 05:56:34;;;;;;;21.65;7.93;;;2.70;99.90;;;;;;6136981;23;20446;-79
2023/01/15 05:59:06;;;;;;;4.72;2.55;;;2.70;99.90;;;;;;6163027;23;20017;-79
2023/01/15 06:01:35;;;;;;;20.33;7.70;;;2.60;99.90;;;;;;6146339;23;20413;-79
2023/01/15 06:04:04;;;;;;;19.02;6.32;;;2.70;99.90;;;;;;6142214;23;20443;-79
2023/01/15 06:06:35;;;;;;;10.10;4.50;;;2.70;99.90;;;;;;6170396;23;20073;-79
2023/01/15 06:09:04;;;;;;;17.70;7.15;;;2.70;99.90;;;;;;6169164;23;20093;-79
2023/01/15 06:11:34;;;;;;;18.73;7.75;;;2.70;99.90;;;;;;6166023;23;20021;-79
2023/01/15 06:14:03;;;;;;;20.33;7.75;;;2.70;99.90;;;;;;6180473;23;20020;-79
2023/01/15 06:16:31;;;;;;;16.45;5.85;;;2.80;99.90;;;;;;6199319;23;20084;-79
2023/01/15 06:19:04;;;;;;;19.67;7.57;;;2.80;99.90;;;;;;6203655;23;19997;-79
2023/01/15 06:21:32;;;;;;;17.65;7.07;;;2.70;99.90;;;;;;6203276;23;20365;-79
2023/01/15 06:24:00;;;;;;;15.95;6.50;;;2.70;99.90;;;;;;6174966;23;20024;-79
2023/01/15 06:26:28;;;;;;;19.02;7.55;;;2.80;99.90;;;;;;6199395;23;20028;-79
2023/01/15 06:28:55;;;;;;;21.27;8.05;;;2.80;99.90;;;;;;6195312;23;20039;-79
2023/01/15 06:31:27;;;;;;;15.07;5.20;;;2.80;99.90;;;;;;6173477;23;20023;-79
2023/01/15 06:33:55;;;;;;;25.48;8.35;;;3.60;99.90;;;;;;6149384;23;20032;-79
2023/01/15 06:36:25;;;;;;;18.13;5.93;;;2.80;99.90;;;;;;6165437;23;20027;-79
2023/01/15 06:38:53;;;;;;;18.45;6.47;;;2.80;99.90;;;;;;6174798;23;20048;-79
2023/01/15 06:47:21;;;;;;;22.95;8.45;;;2.90;99.90;;;;;;6197920;23;20412;-79
2023/01/15 06:49:56;;;;;;;24.33;9.75;;;2.90;99.90;;;;;;6181143;23;20071;-79
2023/01/15 06:52:25;;;;;;;16.88;6.90;;;3.00;99.90;;;;;;6169924;23;20017;-79
2023/01/15 06:54:55;;;;;;;18.85;7.20;;;3.00;99.90;;;;;;6198829;23;20071;-79
2023/01/15 06:57:23;;;;;;;25.05;8.05;;;3.00;99.90;;;;;;6193576;23;20021;-79
2023/01/15 06:59:51;;;;;;;26.67;9.85;;;3.00;99.90;;;;;;6193430;23;20020;-79
2023/01/15 07:02:20;;;;;;;27.50;9.88;;;3.00;99.90;;;;;;6188226;23;20456;-79
2023/01/15 07:04:48;;;;;;;23.30;10.05;;;3.00;99.90;;;;;;6165663;23;20020;-79
2023/01/15 07:07:19;;;;;;;21.52;8.30;;;4.00;99.90;;;;;;6202712;23;20016;-79
2023/01/15 07:09:47;;;;;;;29.83;10.38;;;3.10;99.90;;;;;;6197083;23;20495;-79
2023/01/15 07:12:14;;;;;;;22.83;9.15;;;3.20;99.90;;;;;;6192381;23;20119;-79
2023/01/15 07:14:41;;;;;;;20.98;8.20;;;3.20;99.90;;;;;;6190609;23;20024;-79
2023/01/15 07:17:09;;;;;;;29.67;11.07;;;3.20;99.90;;;;;;6190651;23;20021;-79
2023/01/15 07:19:37;;;;;;;29.63;11.73;;;3.20;99.90;;;;;;6191951;23;20021;-79
2023/01/15 07:22:06;;;;;;;25.73;9.80;;;3.20;99.90;;;;;;6168023;23;20016;-79
2023/01/15 07:24:33;;;;;;;27.98;10.73;;;3.20;99.90;;;;;;6195006;23;20025;-79
2023/01/15 07:27:01;;;;;;;25.73;9.95;;;3.30;99.90;;;;;;6160349;23;20025;-79
2023/01/15 07:29:28;;;;;;;28.73;10.05;;;3.30;99.90;;;;;;6162300;23;20031;-79
2023/01/15 07:31:57;;;;;;;31.63;11.55;;;3.30;99.90;;;;;;6186540;23;20076;-79
2023/01/15 07:34:25;;;;;;;26.60;9.68;;;3.40;99.90;;;;;;6160338;23;20024;-79
2023/01/15 07:36:52;;;;;;;24.38;8.52;;;3.30;99.90;;;;;;6162636;23;20007;-80
2023/01/15 07:39:21;;;;;;;29.85;11.98;;;3.40;99.90;;;;;;6167223;23;20059;-79
2023/01/15 07:50:24;;;;;;;33.25;11.73;;;3.50;99.90;;;;;;6186217;23;20520;-79
2023/01/15 07:52:52;;;;;;;25.13;10.98;;;3.40;99.90;;;;;;6166118;23;20520;-79
2023/01/15 07:55:20;;;;;;;32.95;12.43;;;3.50;99.90;;;;;;6183715;23;20437;-79
2023/01/15 07:57:48;;;;;;;37.83;14.13;;;2.40;99.90;;;;;;6164748;23;20021;-80
2023/01/15 08:00:22;;;;;;;28.27;11.60;;;3.60;99.90;;;;;;6223480;23;20021;-79
2023/01/15 08:02:50;;;;;;;;;;;3.60;99.90;;;;;;6163720;23;20012;-79
2023/01/15 08:05:18;;;;;;;29.30;11.68;;;3.70;99.90;;;;;;6168055;23;19963;-79
2023/01/15 08:07:45;;;;;;;30.17;11.48;;;3.70;99.90;;;;;;6194658;23;20017;-79
2023/01/15 08:10:13;;;;;;;27.67;10.90;;;3.70;99.90;;;;;;6192166;23;20105;-79
2023/01/15 08:15:32;;;;;;;33.20;12.77;;;3.80;99.90;;;;;;6190987;23;20095;-79
2023/01/15 08:17:59;;;;;;;30.05;11.13;;;3.80;99.90;;;;;;6221215;23;20009;-79
2023/01/15 08:20:28;;;;;;;29.35;10.10;;;3.80;99.90;;;;;;6193373;23;20104;-79
2023/01/15 08:26:27;;;;;;;27.25;10.20;;;3.90;99.90;;;;;;6152634;23;20029;-78
2023/01/15 08:29:01;;;;;;;32.03;12.70;;;3.60;99.90;;;;;;6180252;23;20412;-78
2023/01/15 08:31:33;;;;;;;23.45;10.18;;;3.90;99.90;;;;;;6215972;22;20051;-77
2023/01/15 08:34:06;;;;;;;36.72;14.18;;;3.90;99.90;;;;;;6235799;23;20008;-78
2023/01/15 08:36:45;;;;;;;29.52;11.43;;;4.00;99.90;;;;;;6205746;23;20017;-77
2023/01/15 08:39:13;;;;;;;31.80;11.82;;;4.10;99.90;;;;;;6207660;23;20012;-77
2023/01/15 08:41:44;;;;;;;25.13;8.40;;;4.10;99.90;;;;;;6153517;23;20525;-77
2023/01/15 08:44:33;;;;;;;26.65;11.15;;;4.20;99.90;;;;;;6183759;23;20025;-78
2023/01/15 08:47:10;;;;;;;30.80;11.43;;;4.20;99.90;;;;;;6096816;23;20024;-78
2023/01/15 08:49:40;;;;;;;31.23;11.35;;;4.30;99.90;;;;;;6128775;23;20003;-77
2023/01/15 08:52:09;;;;;;;28.88;11.65;;;4.10;99.90;;;;;;6128859;23;21100;-78
2023/01/15 08:54:39;;;;;;;17.75;6.88;;;4.30;99.90;;;;;;6209934;22;20024;-77
2023/01/15 08:57:51;;;;;;;26.52;11.13;;;4.40;99.90;;;;;;6148008;23;20033;-79
2023/01/15 09:00:25;;;;;;;33.63;11.60;;;4.40;99.90;;;;;;6180597;23;20028;-78
2023/01/15 09:03:31;;;;;;;27.75;12.73;;;4.50;99.90;;;;;;6192374;23;20027;31
2023/01/15 09:06:22;;;;;;;22.70;8.57;;;4.60;99.90;;;;;;6183633;23;20027;-78
2023/01/15 09:11:57;;;;;;;26.90;11.20;;;4.60;99.90;;;;;;6151481;23;20037;-79
2023/01/15 09:18:10;;;;;;;27.35;10.85;;;4.70;99.90;;;;;;6118315;23;20025;31
2023/01/15 09:21:18;;;;;;;23.83;10.52;;;4.90;99.90;;;;;;6178105;23;20015;-79
2023/01/15 09:27:36;;;;;;;25.85;10.98;;;4.90;99.90;;;;;;6193859;23;20110;-79
2023/01/15 09:30:32;;;;;;;30.08;11.43;;;5.00;99.90;;;;;;6162342;23;20024;-78
2023/01/15 09:33:10;;;;;;;27.35;11.18;;;4.80;99.90;;;;;;6156703;23;20021;-78
2023/01/15 09:35:46;;;;;;;24.98;10.55;;;5.70;99.90;;;;;;6178544;23;20020;-78
2023/01/15 09:38:57;;;;;;;19.48;7.35;;;5.40;99.90;;;;;;6136516;23;20069;-78
2023/01/15 09:42:05;;;;;;;25.55;10.60;;;5.20;99.90;;;;;;6110730;23;20030;-78
2023/01/15 09:45:00;;;;;;;26.30;11.95;;;5.30;99.90;;;;;;6123916;23;20060;-78
2023/01/15 09:47:40;;;;;;;17.40;7.05;;;5.40;99.90;;;;;;6090085;23;20002;-79
2023/01/15 09:50:50;;;;;;;15.35;5.93;;;5.30;99.90;;;;;;6112325;23;20451;-78
2023/01/15 09:53:41;;;;;;;21.80;8.80;;;6.00;99.90;;;;;;6113770;23;20022;-78
2023/01/15 09:56:53;;;;;;;20.52;9.05;;;5.30;99.90;;;;;;6091822;23;20143;-79
2023/01/15 09:59:48;;;;;;;19.30;8.35;;;5.30;99.90;;;;;;6031912;23;20030;-79
2023/01/15 10:02:37;;;;;;;18.63;8.23;;;5.30;99.90;;;;;;6028195;23;20081;-79
2023/01/15 10:05:38;;;;;;;23.02;9.95;;;5.70;99.90;;;;;;6005855;23;20019;-79
2023/01/15 10:09:16;;;;;;;26.13;8.95;;;5.30;99.90;;;;;;6001657;23;20024;-79
2023/01/15 10:16:03;;;;;;;16.85;6.35;;;5.40;99.90;;;;;;5970401;24;20020;-79
2023/01/15 10:18:42;;;;;;;18.33;8.00;;;5.60;99.90;;;;;;5939464;24;20378;-79
2023/01/15 10:21:43;;;;;;;21.23;9.80;;;5.70;99.90;;;;;;5936395;24;20052;-79
2023/01/15 10:24:45;;;;;;;23.40;9.07;;;4.80;99.90;;;;;;5928254;24;20024;-79
2023/01/15 10:27:39;;;;;;;22.55;7.57;;;5.80;99.90;;;;;;5857753;24;20046;-79
2023/01/15 10:30:47;;;;;;;18.67;7.35;;;5.80;99.90;;;;;;5856292;24;20179;-79
2023/01/15 10:33:36;;;;;;;;;;;5.80;99.90;;;;;;5856770;24;20050;-77
2023/01/15 10:36:39;;;;;;;20.85;8.50;;;5.40;99.90;;;;;;5824763;24;19921;-77
2023/01/15 10:39:37;;;;;;;21.77;8.82;;;6.00;99.90;;;;;;5808959;24;20019;-77
2023/01/15 10:42:49;;;;;;;26.17;10.52;;;6.10;99.90;;;;;;5784215;24;20046;-77
2023/01/15 10:45:47;;;;;;;26.27;10.18;;;6.10;99.90;;;;;;5785073;24;20035;-77
2023/01/15 10:49:16;;;;;;;20.50;8.77;;;6.10;99.90;;;;;;5808589;24;20521;-77
2023/01/15 10:52:24;;;;;;;23.83;11.27;;;6.10;99.90;;;;;;5749767;24;20090;-77
2023/01/15 10:55:24;;;;;;;16.77;7.20;;;6.20;99.90;;;;;;5667004;25;20063;-77
2023/01/15 10:58:20;;;;;;;19.85;7.97;;;6.60;99.90;;;;;;5750392;24;20380;-78
2023/01/15 11:01:20;;;;;;;16.92;7.97;;;6.30;99.90;;;;;;5736422;24;20051;-77
2023/01/15 11:03:54;;;;;;;16.90;7.53;;;6.30;99.90;;;;;;5750131;25;20024;-77
2023/01/15 11:06:29;;;;;;;26.65;10.18;;;6.30;99.90;;;;;;5705750;25;20036;-78
2023/01/15 11:09:00;;;;;;;21.13;8.68;;;6.30;99.90;;;;;;5760695;24;20037;-78
2023/01/15 11:21:26;;;;;;;15.35;6.78;;;6.80;99.90;;;;;;6168663;23;20005;-78
2023/01/15 11:28:26;;;;;;;23.20;11.07;;;6.70;99.90;;;;;;6230139;23;19922;-78
2023/01/15 11:31:11;;;;;;;23.17;10.13;;;6.70;99.90;;;;;;6123888;23;20049;-78
2023/01/15 11:34:07;;;;;;;19.02;8.52;;;6.50;99.90;;;;;;6143583;23;20842;-78
2023/01/15 11:37:38;;;;;;;36.80;10.73;;;6.50;99.90;;;;;;6146726;23;20002;-79
2023/01/15 11:53:07;;;;;;;24.85;11.00;;;6.50;99.90;;;;;;6085203;23;20027;-78
2023/01/15 11:55:47;;;;;;;19.50;6.88;;;6.50;99.90;;;;;;5995833;23;20030;-78
2023/01/15 11:58:15;;;;;;;18.70;8.45;;;6.50;99.90;;;;;;5955200;23;20052;-77
2023/01/15 12:00:53;;;;;;;16.20;6.43;;;6.60;99.90;;;;;;5997269;23;20027;-78
2023/01/15 12:03:32;;;;;;;24.98;10.52;;;6.50;99.90;;;;;;5972972;23;20489;-78
2023/01/15 12:06:08;;;;;;;24.58;10.32;;;6.60;99.90;;;;;;6000345;23;20530;-78
2023/01/15 12:09:22;;;;;;;23.60;9.95;;;6.70;99.90;;;;;;6020519;23;20028;-78
2023/01/15 12:12:21;;;;;;;27.02;11.50;;;6.60;99.90;;;;;;5949025;24;20024;-78
2023/01/15 12:15:07;;;;;;;21.33;9.43;;;6.60;99.90;;;;;;5947520;24;20025;-78
2023/01/15 12:17:59;;;;;;;24.50;9.13;;;6.70;99.90;;;;;;5956938;23;20058;-78
2023/01/15 12:20:49;;;;;;;24.27;9.40;;;6.70;99.90;;;;;;5974332;23;20061;-78
2023/01/15 12:24:12;;;;;;;29.67;11.88;;;6.80;99.90;;;;;;5998308;23;20049;-78
2023/01/15 12:27:40;;;;;;;29.58;11.75;;;6.70;99.90;;;;;;5938541;24;20032;-78
2023/01/15 12:31:05;;;;;;;20.00;10.07;;;6.90;99.90;;;;;;5858543;24;20007;-78
2023/01/15 12:33:44;;;;;;;23.65;10.52;;;6.90;99.90;;;;;;5887937;24;20030;-78
2023/01/15 12:36:36;;;;;;;21.90;10.30;;;6.80;99.90;;;;;;5966221;24;20111;-78
2023/01/15 12:39:23;;;;;;;21.40;10.18;;;7.00;99.90;;;;;;5971772;24;20020;-78
2023/01/15 12:45:04;;;;;;;24.50;10.75;;;7.00;99.90;;;;;;5999684;23;20033;-78
2023/01/15 12:47:51;;;;;;;21.40;9.40;;;7.00;99.90;;;;;;6176201;23;20013;-78
2023/01/15 12:50:24;;;;;;;23.67;8.75;;;7.10;99.90;;;;;;6171895;23;20013;-77
2023/01/15 12:53:27;;;;;;;21.52;8.85;;;7.00;99.90;;;;;;6149527;23;20017;-78
2023/01/15 12:56:36;;;;;;;22.88;9.05;;;7.00;99.90;;;;;;6142524;23;20108;-77
2023/01/15 12:59:25;;;;;;;24.73;10.90;;;6.30;99.90;;;;;;6149664;23;20045;-77
2023/01/15 13:02:22;;;;;;;20.75;9.27;;;7.10;99.90;;;;;;6170992;23;20013;-78
2023/01/15 13:05:30;;;;;;;20.45;8.27;;;7.30;99.90;;;;;;6158799;23;20423;-78
2023/01/15 13:08:19;;;;;;;23.20;9.07;;;6.70;99.90;;;;;;6088522;23;20022;-78
2023/01/15 13:10:55;;;;;;;21.02;8.50;;;7.10;99.90;;;;;;6088097;23;20017;-77
2023/01/15 13:13:56;;;;;;;23.17;9.73;;;7.10;99.90;;;;;;6097711;22;20031;-79
2023/01/15 13:16:45;;;;;;;22.17;9.35;;;7.10;99.90;;;;;;6193620;23;20005;-78
2023/01/15 13:23:12;;;;;;;21.87;7.80;;;7.20;99.90;;;;;;6192592;23;20092;31
2023/01/15 13:25:57;;;;;;;24.13;10.05;;;7.30;99.90;;;;;;6117024;23;20446;-78
2023/01/15 13:28:38;;;;;;;19.55;9.43;;;7.20;99.90;;;;;;6074048;23;20572;-77
2023/01/15 13:32:01;;;;;;;18.27;7.93;;;7.40;99.90;;;;;;6117271;23;20057;-77
2023/01/15 13:34:47;;;;;;;19.77;8.55;;;7.60;99.90;;;;;;6084752;23;20002;-79
2023/01/15 13:37:22;;;;;;;18.83;8.10;;;7.10;99.90;;;;;;6140409;23;20357;-78
2023/01/15 13:39:53;;;;;;;19.90;7.70;;;7.20;99.90;;;;;;6137390;23;20030;-78
2023/01/15 13:42:34;;;;;;;17.45;7.38;;;7.30;99.90;;;;;;6140716;23;20033;-79
2023/01/15 13:45:48;;;;;;;17.25;7.15;;;7.10;99.90;;;;;;6117429;23;20026;-78
2023/01/15 13:48:47;;;;;;;17.15;7.28;;;7.20;99.90;;;;;;6082052;23;20079;-79
2023/01/15 13:51:36;;;;;;;18.60;7.80;;;7.20;99.90;;;;;;6030448;23;20024;-79
2023/01/15 13:54:14;;;;;;;20.35;8.25;;;7.20;99.90;;;;;;6077421;23;20024;-79
2023/01/15 13:57:23;;;;;;;15.82;6.57;;;7.10;99.90;;;;;;6237245;22;20039;-78
2023/01/15 13:59:51;;;;;;;9.27;3.65;;;7.00;99.90;;;;;;6205507;22;20020;-78
2023/01/15 14:02:27;;;;;;;24.48;9.25;;;7.50;99.90;;;;;;6184938;22;20015;-78
2023/01/15 14:04:58;;;;;;;23.75;8.55;;;7.10;99.90;;;;;;6260651;22;20024;-78
2023/01/15 14:08:10;;;;;;;21.40;9.75;;;6.30;99.90;;;;;;6172540;22;20024;-78
2023/01/15 14:10:39;;;;;;;27.67;10.57;;;7.10;99.90;;;;;;6234591;23;20071;-78
2023/01/15 14:13:58;;;;;;;29.40;10.80;;;7.10;99.90;;;;;;6205098;22;20021;31
2023/01/15 14:16:50;;;;;;;26.77;11.68;;;7.00;99.90;;;;;;6108637;23;20242;-79
2023/01/15 14:30:09;;;;;;;25.80;11.43;;;6.90;99.90;;;;;;6125385;23;20045;31
2023/01/15 14:43:32;;;;;;;27.23;12.23;;;6.80;99.90;;;;;;6156801;22;20043;31
2023/01/15 14:46:33;;;;;;;24.92;10.95;;;6.80;99.90;;;;;;6121469;23;20009;-80
2023/01/15 14:52:25;;;;;;;45.83;16.35;;;6.80;99.90;;;;;;6159351;22;20051;-79
2023/01/15 15:08:13;;;;;;;30.75;12.73;;;6.70;99.90;;;;;;6157283;22;20011;-79
2023/01/15 15:21:26;;;;;;;25.88;10.15;;;6.70;99.90;;;;;;6190345;23;20028;-79
2023/01/15 15:24:26;;;;;;;33.58;12.80;;;6.60;99.90;;;;;;6124347;23;20025;-78
2023/01/15 15:30:50;;;;;;;30.75;13.85;;;6.60;99.90;;;;;;6171527;22;20051;31
2023/01/15 15:33:52;;;;;;;30.08;13.27;;;6.60;99.90;;;;;;6170151;23;20021;31
2023/01/15 15:36:50;;;;;;;31.33;13.35;;;6.50;99.90;;;;;;6157638;23;20022;31
2023/01/15 16:16:26;;;;;;;30.30;12.50;;;6.40;99.90;;;;;;6166251;23;20093;31
2023/01/15 16:19:39;;;;;;;;;;;;;;;;;;;;;
2023/01/15 16:22:34;;;;;;;36.95;14.05;;;6.40;99.90;;;;;;6126473;23;20032;31
2023/01/15 16:29:00;;;;;;;32.80;12.45;;;6.40;99.90;;;;;;6221798;22;20084;-79
2023/01/15 16:42:42;;;;;;;38.63;14.82;;;6.40;99.90;;;;;;6229952;22;20035;-78
